sensor_id;sensor_type;location;lat;lon;timestamp;temperature;humidity
31597;DHT22;18201;50.978;7.034;2023-03-31T00:00:19;11.30;99.90
31597;DHT22;18201;50.978;7.034;2023-03-31T00:00:51;11.40;99.90
31597;DHT22;18201;50.978;7.034;2023-03-31T00:01:23;11.40;99.90
31597;DHT22;18201;50.978;7.034;2023-03-31T00:01:54;11.40;99.90
31597;DHT22;18201;50.978;7.034;2023-03-31T00:02:27;11.40;99.90
31597;DHT22;18201;50.978;7.034;2023-03-31T00:02:59;11.40;99.90
31597;DHT22;18201;50.978;7.034;2023-03-31T00:03:31;11.40;99.90
31597;DHT22;18201;50.978;7.034;2023-03-31T00:04:03;11.40;99.90
31597;DHT22;18201;50.978;7.034;2023-03-31T00:04:35;11.40;99.90
31597;DHT22;18201;50.978;7.034;2023-03-31T00:05:06;11.40;99.90
31597;DHT22;18201;50.978;7.034;2023-03-31T00:05:37;11.40;99.90
31597;DHT22;18201;50.978;7.034;2023-03-31T00:06:11;11.40;99.90
31597;DHT22;18201;50.978;7.034;2023-03-31T00:06:47;11.40;99.90
31597;DHT22;18201;50.978;7.034;2023-03-31T00:07:19;11.40;99.90
31597;DHT22;18201;50.978;7.034;2023-03-31T00:07:54;11.40;99.90
31597;DHT22;18201;50.978;7.034;2023-03-31T00:08:31;11.40;99.90
31597;DHT22;18201;50.978;7.034;2023-03-31T00:09:07;11.50;99.90
31597;DHT22;18201;50.978;7.034;2023-03-31T00:09:39;11.50;99.90
31597;DHT22;18201;50.978;7.034;2023-03-31T00:10:11;11.50;99.90
31597;DHT22;18201;50.978;7.034;2023-03-31T00:10:44;11.50;99.90
31597;DHT22;18201;50.978;7.034;2023-03-31T00:11:17;11.50;99.90
31597;DHT22;18201;50.978;7.034;2023-03-31T00:11:48;11.40;99.90
31597;DHT22;18201;50.978;7.034;2023-03-31T00:12:20;11.40;99.90
31597;DHT22;18201;50.978;7.034;2023-03-31T00:12:51;11.30;99.90
31597;DHT22;18201;50.978;7.034;2023-03-31T00:13:22;11.30;99.90
31597;DHT22;18201;50.978;7.034;2023-03-31T00:13:54;11.30;99.90
31597;DHT22;18201;50.978;7.034;2023-03-31T00:14:25;11.20;99.90
31597;DHT22;18201;50.978;7.034;2023-03-31T00:14:56;11.20;99.90
31597;DHT22;18201;50.978;7.034;2023-03-31T00:15:28;11.20;99.90
31597;DHT22;18201;50.978;7.034;2023-03-31T00:16:01;11.10;99.90
31597;DHT22;18201;50.978;7.034;2023-03-31T00:16:32;11.10;99.90
31597;DHT22;18201;50.978;7.034;2023-03-31T00:17:04;11.00;99.90
31597;DHT22;18201;50.978;7.034;2023-03-31T00:17:35;11.00;99.90
31597;DHT22;18201;50.978;7.034;2023-03-31T00:18:06;11.00;99.90
31597;DHT22;18201;50.978;7.034;2023-03-31T00:18:39;11.00;99.90
31597;DHT22;18201;50.978;7.034;2023-03-31T00:19:11;10.90;99.90
31597;DHT22;18201;50.978;7.034;2023-03-31T00:19:47;10.90;99.90
31597;DHT22;18201;50.978;7.034;2023-03-31T00:20:19;10.90;99.90
31597;DHT22;18201;50.978;7.034;2023-03-31T00:20:52;10.90;99.90
31597;DHT22;18201;50.978;7.034;2023-03-31T00:21:23;10.90;99.90
31597;DHT22;18201;50.978;7.034;2023-03-31T00:21:56;10.90;99.90
31597;DHT22;18201;50.978;7.034;2023-03-31T00:22:31;10.90;99.90
31597;DHT22;18201;50.978;7.034;2023-03-31T00:23:02;10.80;99.90
31597;DHT22;18201;50.978;7.034;2023-03-31T00:23:33;10.80;99.90
31597;DHT22;18201;50.978;7.034;2023-03-31T00:24:06;10.80;99.90
31597;DHT22;18201;50.978;7.034;2023-03-31T00:24:37;10.80;99.90
31597;DHT22;18201;50.978;7.034;2023-03-31T00:25:09;10.80;99.90
31597;DHT22;18201;50.978;7.034;2023-03-31T00:25:40;10.80;99.90
31597;DHT22;18201;50.978;7.034;2023-03-31T00:26:11;10.70;99.90
31597;DHT22;18201;50.978;7.034;2023-03-31T00:26:43;10.70;99.90
31597;DHT22;18201;50.978;7.034;2023-03-31T00:27:14;10.70;99.90
31597;DHT22;18201;50.978;7.034;2023-03-31T00:27:46;10.70;99.90
31597;DHT22;18201;50.978;7.034;2023-03-31T00:28:20;10.70;99.90
31597;DHT22;18201;50.978;7.034;2023-03-31T00:28:51;10.70;99.90
31597;DHT22;18201;50.978;7.034;2023-03-31T00:29:23;10.70;99.90
31597;DHT22;18201;50.978;7.034;2023-03-31T00:29:54;10.70;99.90
31597;DHT22;18201;50.978;7.034;2023-03-31T00:30:25;10.70;99.90
31597;DHT22;18201;50.978;7.034;2023-03-31T00:30:59;10.60;99.90
31597;DHT22;18201;50.978;7.034;2023-03-31T00:31:32;10.70;99.90
31597;DHT22;18201;50.978;7.034;2023-03-31T00:32:03;10.70;99.90
31597;DHT22;18201;50.978;7.034;2023-03-31T00:32:35;10.70;99.90
31597;DHT22;18201;50.978;7.034;2023-03-31T00:33:06;10.70;99.90
31597;DHT22;18201;50.978;7.034;2023-03-31T00:33:39;10.70;99.90
31597;DHT22;18201;50.978;7.034;2023-03-31T00:34:10;10.70;99.90
31597;DHT22;18201;50.978;7.034;2023-03-31T00:34:41;10.70;99.90
31597;DHT22;18201;50.978;7.034;2023-03-31T00:35:14;10.70;99.90
31597;DHT22;18201;50.978;7.034;2023-03-31T00:35:45;10.70;99.90
31597;DHT22;18201;50.978;7.034;2023-03-31T00:36:21;10.70;99.90
31597;DHT22;18201;50.978;7.034;2023-03-31T00:36:56;10.70;99.90
31597;DHT22;18201;50.978;7.034;2023-03-31T00:37:32;10.70;99.90
31597;DHT22;18201;50.978;7.034;2023-03-31T00:38:04;10.70;99.90
31597;DHT22;18201;50.978;7.034;2023-03-31T00:38:38;10.70;99.90
31597;DHT22;18201;50.978;7.034;2023-03-31T00:39:09;10.70;99.90
31597;DHT22;18201;50.978;7.034;2023-03-31T00:39:41;10.70;99.90
31597;DHT22;18201;50.978;7.034;2023-03-31T00:40:12;10.70;99.90
31597;DHT22;18201;50.978;7.034;2023-03-31T00:40:44;10.70;99.90
31597;DHT22;18201;50.978;7.034;2023-03-31T00:41:17;10.70;99.90
31597;DHT22;18201;50.978;7.034;2023-03-31T00:41:49;10.70;99.90
31597;DHT22;18201;50.978;7.034;2023-03-31T00:42:20;10.80;99.90
31597;DHT22;18201;50.978;7.034;2023-03-31T00:42:52;10.80;99.90
31597;DHT22;18201;50.978;7.034;2023-03-31T00:43:29;10.70;99.90
31597;DHT22;18201;50.978;7.034;2023-03-31T00:44:08;10.70;99.90
31597;DHT22;18201;50.978;7.034;2023-03-31T00:45:49;10.70;99.90
31597;DHT22;18201;50.978;7.034;2023-03-31T00:46:25;10.70;99.90
31597;DHT22;18201;50.978;7.034;2023-03-31T00:46:58;10.70;99.90
31597;DHT22;18201;50.978;7.034;2023-03-31T00:47:33;10.70;99.90
31597;DHT22;18201;50.978;7.034;2023-03-31T00:48:07;10.70;99.90
31597;DHT22;18201;50.978;7.034;2023-03-31T00:48:45;10.70;99.90
31597;DHT22;18201;50.978;7.034;2023-03-31T00:49:24;10.70;99.90
31597;DHT22;18201;50.978;7.034;2023-03-31T00:49:56;10.70;99.90
31597;DHT22;18201;50.978;7.034;2023-03-31T00:50:31;10.70;99.90
31597;DHT22;18201;50.978;7.034;2023-03-31T00:51:06;10.70;99.90
31597;DHT22;18201;50.978;7.034;2023-03-31T00:51:37;10.60;99.90
31597;DHT22;18201;50.978;7.034;2023-03-31T00:52:12;10.70;99.90
31597;DHT22;18201;50.978;7.034;2023-03-31T00:52:46;10.60;99.90
31597;DHT22;18201;50.978;7.034;2023-03-31T00:53:22;10.60;99.90
31597;DHT22;18201;50.978;7.034;2023-03-31T00:53:56;10.60;99.90
31597;DHT22;18201;50.978;7.034;2023-03-31T00:54:30;10.60;99.90
31597;DHT22;18201;50.978;7.034;2023-03-31T00:55:07;10.60;99.90
31597;DHT22;18201;50.978;7.034;2023-03-31T00:55:41;10.60;99.90
31597;DHT22;18201;50.978;7.034;2023-03-31T00:56:14;10.50;99.90
31597;DHT22;18201;50.978;7.034;2023-03-31T00:56:48;10.50;99.90
31597;DHT22;18201;50.978;7.034;2023-03-31T00:57:23;10.50;99.90
31597;DHT22;18201;50.978;7.034;2023-03-31T00:57:55;10.50;99.90
31597;DHT22;18201;50.978;7.034;2023-03-31T00:58:28;10.50;99.90
31597;DHT22;18201;50.978;7.034;2023-03-31T00:59:02;10.50;99.90
31597;DHT22;18201;50.978;7.034;2023-03-31T00:59:36;10.50;99.90
31597;DHT22;18201;50.978;7.034;2023-03-31T01:00:11;10.50;99.90
31597;DHT22;18201;50.978;7.034;2023-03-31T01:00:44;10.50;99.90
31597;DHT22;18201;50.978;7.034;2023-03-31T01:01:19;10.50;99.90
31597;DHT22;18201;50.978;7.034;2023-03-31T01:01:55;10.50;99.90
31597;DHT22;18201;50.978;7.034;2023-03-31T01:02:28;10.40;99.90
31597;DHT22;18201;50.978;7.034;2023-03-31T01:03:03;10.50;99.90
31597;DHT22;18201;50.978;7.034;2023-03-31T01:03:36;10.40;99.90
31597;DHT22;18201;50.978;7.034;2023-03-31T01:04:09;10.50;99.90
31597;DHT22;18201;50.978;7.034;2023-03-31T01:04:44;10.50;99.90
31597;DHT22;18201;50.978;7.034;2023-03-31T01:05:22;10.50;99.90
31597;DHT22;18201;50.978;7.034;2023-03-31T01:05:55;10.50;99.90
31597;DHT22;18201;50.978;7.034;2023-03-31T01:06:27;10.50;99.90
31597;DHT22;18201;50.978;7.034;2023-03-31T01:07:06;10.40;99.90
31597;DHT22;18201;50.978;7.034;2023-03-31T01:07:42;10.40;99.90
31597;DHT22;18201;50.978;7.034;2023-03-31T01:08:14;10.40;99.90
31597;DHT22;18201;50.978;7.034;2023-03-31T01:08:49;10.40;99.90
31597;DHT22;18201;50.978;7.034;2023-03-31T01:09:20;10.40;99.90
31597;DHT22;18201;50.978;7.034;2023-03-31T01:09:56;10.40;99.90
31597;DHT22;18201;50.978;7.034;2023-03-31T01:10:32;10.40;99.90
31597;DHT22;18201;50.978;7.034;2023-03-31T01:11:10;10.40;99.90
31597;DHT22;18201;50.978;7.034;2023-03-31T01:11:43;10.40;99.90
31597;DHT22;18201;50.978;7.034;2023-03-31T01:12:17;10.40;99.90
31597;DHT22;18201;50.978;7.034;2023-03-31T01:12:51;10.40;99.90
31597;DHT22;18201;50.978;7.034;2023-03-31T01:13:24;10.40;99.90
31597;DHT22;18201;50.978;7.034;2023-03-31T01:13:57;10.40;99.90
31597;DHT22;18201;50.978;7.034;2023-03-31T01:14:29;10.40;99.90
31597;DHT22;18201;50.978;7.034;2023-03-31T01:15:02;10.40;99.90
31597;DHT22;18201;50.978;7.034;2023-03-31T01:15:34;10.40;99.90
31597;DHT22;18201;50.978;7.034;2023-03-31T01:16:06;10.40;99.90
31597;DHT22;18201;50.978;7.034;2023-03-31T01:16:36;10.40;99.90
31597;DHT22;18201;50.978;7.034;2023-03-31T01:17:09;10.40;99.90
31597;DHT22;18201;50.978;7.034;2023-03-31T01:17:41;10.40;99.90
31597;DHT22;18201;50.978;7.034;2023-03-31T01:18:16;10.40;99.90
31597;DHT22;18201;50.978;7.034;2023-03-31T01:18:50;10.40;99.90
31597;DHT22;18201;50.978;7.034;2023-03-31T01:19:34;10.40;99.90
31597;DHT22;18201;50.978;7.034;2023-03-31T01:20:18;10.30;99.90
31597;DHT22;18201;50.978;7.034;2023-03-31T01:21:09;10.30;99.90
31597;DHT22;18201;50.978;7.034;2023-03-31T01:24:24;10.30;99.90
31597;DHT22;18201;50.978;7.034;2023-03-31T01:25:44;10.30;99.90
31597;DHT22;18201;50.978;7.034;2023-03-31T01:26:54;10.30;99.90
31597;DHT22;18201;50.978;7.034;2023-03-31T01:27:40;10.20;99.90
31597;DHT22;18201;50.978;7.034;2023-03-31T01:28:22;10.20;99.90
31597;DHT22;18201;50.978;7.034;2023-03-31T01:29:00;10.20;99.90
31597;DHT22;18201;50.978;7.034;2023-03-31T01:29:55;10.20;99.90
31597;DHT22;18201;50.978;7.034;2023-03-31T01:32:21;10.20;99.90
31597;DHT22;18201;50.978;7.034;2023-03-31T01:33:28;10.20;99.90
31597;DHT22;18201;50.978;7.034;2023-03-31T01:34:24;10.20;99.90
31597;DHT22;18201;50.978;7.034;2023-03-31T01:36:29;10.20;99.90
31597;DHT22;18201;50.978;7.034;2023-03-31T01:37:41;10.20;99.90
31597;DHT22;18201;50.978;7.034;2023-03-31T01:40:55;10.20;99.90
31597;DHT22;18201;50.978;7.034;2023-03-31T01:41:53;10.10;99.90
31597;DHT22;18201;50.978;7.034;2023-03-31T01:42:31;10.10;99.90
31597;DHT22;18201;50.978;7.034;2023-03-31T01:43:06;10.10;99.90
31597;DHT22;18201;50.978;7.034;2023-03-31T01:43:45;10.10;99.90
31597;DHT22;18201;50.978;7.034;2023-03-31T01:44:22;10.10;99.90
31597;DHT22;18201;50.978;7.034;2023-03-31T01:45:02;10.10;99.90
31597;DHT22;18201;50.978;7.034;2023-03-31T01:45:47;10.10;99.90
31597;DHT22;18201;50.978;7.034;2023-03-31T01:46:27;10.10;99.90
31597;DHT22;18201;50.978;7.034;2023-03-31T01:47:03;10.10;99.90
31597;DHT22;18201;50.978;7.034;2023-03-31T01:47:39;10.10;99.90
31597;DHT22;18201;50.978;7.034;2023-03-31T01:48:12;10.10;99.90
31597;DHT22;18201;50.978;7.034;2023-03-31T01:48:53;10.10;99.90
31597;DHT22;18201;50.978;7.034;2023-03-31T01:49:32;10.10;99.90
31597;DHT22;18201;50.978;7.034;2023-03-31T01:50:10;10.10;99.90
31597;DHT22;18201;50.978;7.034;2023-03-31T01:50:48;10.10;99.90
31597;DHT22;18201;50.978;7.034;2023-03-31T01:51:30;10.10;99.90
31597;DHT22;18201;50.978;7.034;2023-03-31T01:52:05;10.10;99.90
31597;DHT22;18201;50.978;7.034;2023-03-31T01:52:42;10.10;99.90
31597;DHT22;18201;50.978;7.034;2023-03-31T01:53:19;10.10;99.90
31597;DHT22;18201;50.978;7.034;2023-03-31T01:54:00;10.10;99.90
31597;DHT22;18201;50.978;7.034;2023-03-31T01:54:37;10.10;99.90
31597;DHT22;18201;50.978;7.034;2023-03-31T01:55:17;10.10;99.90
31597;DHT22;18201;50.978;7.034;2023-03-31T01:55:58;10.10;99.90
31597;DHT22;18201;50.978;7.034;2023-03-31T01:56:33;10.20;99.90
31597;DHT22;18201;50.978;7.034;2023-03-31T01:57:10;10.20;99.90
31597;DHT22;18201;50.978;7.034;2023-03-31T01:57:46;10.20;99.90
31597;DHT22;18201;50.978;7.034;2023-03-31T01:58:22;10.10;99.90
31597;DHT22;18201;50.978;7.034;2023-03-31T01:58:58;10.10;99.90
31597;DHT22;18201;50.978;7.034;2023-03-31T01:59:36;10.20;99.90
31597;DHT22;18201;50.978;7.034;2023-03-31T02:00:11;10.20;99.90
31597;DHT22;18201;50.978;7.034;2023-03-31T02:00:47;10.20;99.90
31597;DHT22;18201;50.978;7.034;2023-03-31T02:01:26;10.20;99.90
31597;DHT22;18201;50.978;7.034;2023-03-31T02:02:05;10.20;99.90
31597;DHT22;18201;50.978;7.034;2023-03-31T02:02:38;10.20;99.90
31597;DHT22;18201;50.978;7.034;2023-03-31T02:03:15;10.20;99.90
31597;DHT22;18201;50.978;7.034;2023-03-31T02:03:53;10.20;99.90
31597;DHT22;18201;50.978;7.034;2023-03-31T02:04:28;10.20;99.90
31597;DHT22;18201;50.978;7.034;2023-03-31T02:05:05;10.20;99.90
31597;DHT22;18201;50.978;7.034;2023-03-31T02:05:42;10.10;99.90
31597;DHT22;18201;50.978;7.034;2023-03-31T02:06:17;10.20;99.90
31597;DHT22;18201;50.978;7.034;2023-03-31T02:06:54;10.20;99.90
31597;DHT22;18201;50.978;7.034;2023-03-31T02:07:30;10.20;99.90
31597;DHT22;18201;50.978;7.034;2023-03-31T02:08:05;10.20;99.90
31597;DHT22;18201;50.978;7.034;2023-03-31T02:08:41;10.20;99.90
31597;DHT22;18201;50.978;7.034;2023-03-31T02:09:16;10.20;99.90
31597;DHT22;18201;50.978;7.034;2023-03-31T02:09:51;10.20;99.90
31597;DHT22;18201;50.978;7.034;2023-03-31T02:10:25;10.20;99.90
31597;DHT22;18201;50.978;7.034;2023-03-31T02:11:01;10.20;99.90
31597;DHT22;18201;50.978;7.034;2023-03-31T02:11:34;10.20;99.90
31597;DHT22;18201;50.978;7.034;2023-03-31T02:12:09;10.20;99.90
31597;DHT22;18201;50.978;7.034;2023-03-31T02:12:42;10.20;99.90
31597;DHT22;18201;50.978;7.034;2023-03-31T02:13:17;10.20;99.90
31597;DHT22;18201;50.978;7.034;2023-03-31T02:13:51;10.20;99.90
31597;DHT22;18201;50.978;7.034;2023-03-31T02:14:25;10.20;99.90
31597;DHT22;18201;50.978;7.034;2023-03-31T02:15:00;10.20;99.90
31597;DHT22;18201;50.978;7.034;2023-03-31T02:15:35;10.20;99.90
31597;DHT22;18201;50.978;7.034;2023-03-31T02:16:11;10.20;99.90
31597;DHT22;18201;50.978;7.034;2023-03-31T02:16:45;10.20;99.90
31597;DHT22;18201;50.978;7.034;2023-03-31T02:17:18;10.20;99.90
31597;DHT22;18201;50.978;7.034;2023-03-31T02:17:55;10.20;99.90
31597;DHT22;18201;50.978;7.034;2023-03-31T02:18:30;10.20;99.90
31597;DHT22;18201;50.978;7.034;2023-03-31T02:19:04;10.20;99.90
31597;DHT22;18201;50.978;7.034;2023-03-31T02:19:39;10.20;99.90
31597;DHT22;18201;50.978;7.034;2023-03-31T02:20:13;10.20;99.90
31597;DHT22;18201;50.978;7.034;2023-03-31T02:20:47;10.10;99.90
31597;DHT22;18201;50.978;7.034;2023-03-31T02:21:20;10.20;99.90
31597;DHT22;18201;50.978;7.034;2023-03-31T02:21:53;10.20;99.90
31597;DHT22;18201;50.978;7.034;2023-03-31T02:22:26;10.20;99.90
31597;DHT22;18201;50.978;7.034;2023-03-31T02:22:57;10.20;99.90
31597;DHT22;18201;50.978;7.034;2023-03-31T02:23:31;10.20;99.90
31597;DHT22;18201;50.978;7.034;2023-03-31T02:24:05;10.20;99.90
31597;DHT22;18201;50.978;7.034;2023-03-31T02:24:37;10.20;99.90
31597;DHT22;18201;50.978;7.034;2023-03-31T02:25:13;10.20;99.90
31597;DHT22;18201;50.978;7.034;2023-03-31T02:25:48;10.10;99.90
31597;DHT22;18201;50.978;7.034;2023-03-31T02:26:26;10.10;99.90
31597;DHT22;18201;50.978;7.034;2023-03-31T02:27:04;10.20;99.90
31597;DHT22;18201;50.978;7.034;2023-03-31T02:27:39;10.20;99.90
31597;DHT22;18201;50.978;7.034;2023-03-31T02:28:13;10.10;99.90
31597;DHT22;18201;50.978;7.034;2023-03-31T02:28:49;10.20;99.90
31597;DHT22;18201;50.978;7.034;2023-03-31T02:29:20;10.10;99.90
31597;DHT22;18201;50.978;7.034;2023-03-31T02:29:51;10.10;99.90
31597;DHT22;18201;50.978;7.034;2023-03-31T02:30:28;10.10;99.90
31597;DHT22;18201;50.978;7.034;2023-03-31T02:31:07;10.10;99.90
31597;DHT22;18201;50.978;7.034;2023-03-31T02:31:46;10.10;99.90
31597;DHT22;18201;50.978;7.034;2023-03-31T02:32:20;10.10;99.90
31597;DHT22;18201;50.978;7.034;2023-03-31T02:32:53;10.10;99.90
31597;DHT22;18201;50.978;7.034;2023-03-31T02:33:23;10.10;99.90
31597;DHT22;18201;50.978;7.034;2023-03-31T02:33:55;10.10;99.90
31597;DHT22;18201;50.978;7.034;2023-03-31T02:34:27;10.10;99.90
31597;DHT22;18201;50.978;7.034;2023-03-31T02:34:58;10.10;99.90
31597;DHT22;18201;50.978;7.034;2023-03-31T02:35:32;10.20;99.90
31597;DHT22;18201;50.978;7.034;2023-03-31T02:36:06;10.10;99.90
31597;DHT22;18201;50.978;7.034;2023-03-31T02:36:39;10.10;99.90
31597;DHT22;18201;50.978;7.034;2023-03-31T02:37:10;10.10;99.90
31597;DHT22;18201;50.978;7.034;2023-03-31T02:37:43;10.10;99.90
31597;DHT22;18201;50.978;7.034;2023-03-31T02:38:14;10.10;99.90
31597;DHT22;18201;50.978;7.034;2023-03-31T02:38:48;10.20;99.90
31597;DHT22;18201;50.978;7.034;2023-03-31T02:39:24;10.10;99.90
31597;DHT22;18201;50.978;7.034;2023-03-31T02:40:00;10.10;99.90
31597;DHT22;18201;50.978;7.034;2023-03-31T02:40:36;10.10;99.90
31597;DHT22;18201;50.978;7.034;2023-03-31T02:41:07;10.10;99.90
31597;DHT22;18201;50.978;7.034;2023-03-31T02:41:40;10.10;99.90
31597;DHT22;18201;50.978;7.034;2023-03-31T02:42:12;10.10;99.90
31597;DHT22;18201;50.978;7.034;2023-03-31T02:42:43;10.20;99.90
31597;DHT22;18201;50.978;7.034;2023-03-31T02:43:14;10.20;99.90
31597;DHT22;18201;50.978;7.034;2023-03-31T02:43:47;10.10;99.90
31597;DHT22;18201;50.978;7.034;2023-03-31T02:44:17;10.20;99.90
31597;DHT22;18201;50.978;7.034;2023-03-31T02:44:49;10.10;99.90
31597;DHT22;18201;50.978;7.034;2023-03-31T02:45:39;10.10;99.90
31597;DHT22;18201;50.978;7.034;2023-03-31T02:46:10;10.10;99.90
31597;DHT22;18201;50.978;7.034;2023-03-31T02:46:42;10.10;99.90
31597;DHT22;18201;50.978;7.034;2023-03-31T02:47:16;10.10;99.90
31597;DHT22;18201;50.978;7.034;2023-03-31T02:47:48;10.10;99.90
31597;DHT22;18201;50.978;7.034;2023-03-31T02:48:23;10.10;99.90
31597;DHT22;18201;50.978;7.034;2023-03-31T02:48:56;10.10;99.90
31597;DHT22;18201;50.978;7.034;2023-03-31T02:49:30;10.10;99.90
31597;DHT22;18201;50.978;7.034;2023-03-31T02:50:03;10.10;99.90
31597;DHT22;18201;50.978;7.034;2023-03-31T02:50:47;10.10;99.90
31597;DHT22;18201;50.978;7.034;2023-03-31T02:52:37;10.10;99.90
31597;DHT22;18201;50.978;7.034;2023-03-31T02:53:15;10.10;99.90
31597;DHT22;18201;50.978;7.034;2023-03-31T02:54:01;10.10;99.90
31597;DHT22;18201;50.978;7.034;2023-03-31T02:55:47;10.10;99.90
31597;DHT22;18201;50.978;7.034;2023-03-31T02:56:30;10.10;99.90
31597;DHT22;18201;50.978;7.034;2023-03-31T02:57:21;10.10;99.90
31597;DHT22;18201;50.978;7.034;2023-03-31T02:59:26;10.10;99.90
31597;DHT22;18201;50.978;7.034;2023-03-31T03:00:07;10.10;99.90
31597;DHT22;18201;50.978;7.034;2023-03-31T03:00:54;10.10;99.90
31597;DHT22;18201;50.978;7.034;2023-03-31T03:01:40;10.20;99.90
31597;DHT22;18201;50.978;7.034;2023-03-31T03:02:17;10.10;99.90
31597;DHT22;18201;50.978;7.034;2023-03-31T03:03:01;10.10;99.90
31597;DHT22;18201;50.978;7.034;2023-03-31T03:03:44;10.10;99.90
31597;DHT22;18201;50.978;7.034;2023-03-31T03:04:35;10.10;99.90
31597;DHT22;18201;50.978;7.034;2023-03-31T03:05:20;10.10;99.90
31597;DHT22;18201;50.978;7.034;2023-03-31T03:05:59;10.10;99.90
31597;DHT22;18201;50.978;7.034;2023-03-31T03:06:40;10.10;99.90
31597;DHT22;18201;50.978;7.034;2023-03-31T03:07:17;10.10;99.90
31597;DHT22;18201;50.978;7.034;2023-03-31T03:07:56;10.10;99.90
31597;DHT22;18201;50.978;7.034;2023-03-31T03:08:38;10.00;99.90
31597;DHT22;18201;50.978;7.034;2023-03-31T03:09:25;10.10;99.90
31597;DHT22;18201;50.978;7.034;2023-03-31T03:10:01;10.10;99.90
31597;DHT22;18201;50.978;7.034;2023-03-31T03:10:41;10.10;99.90
31597;DHT22;18201;50.978;7.034;2023-03-31T03:11:19;10.10;99.90
31597;DHT22;18201;50.978;7.034;2023-03-31T03:12:04;10.10;99.90
31597;DHT22;18201;50.978;7.034;2023-03-31T03:12:43;10.10;99.90
31597;DHT22;18201;50.978;7.034;2023-03-31T03:13:17;10.00;99.90
31597;DHT22;18201;50.978;7.034;2023-03-31T03:13:52;10.10;99.90
31597;DHT22;18201;50.978;7.034;2023-03-31T03:14:30;10.10;99.90
31597;DHT22;18201;50.978;7.034;2023-03-31T03:15:07;10.00;99.90
31597;DHT22;18201;50.978;7.034;2023-03-31T03:15:44;10.10;99.90
31597;DHT22;18201;50.978;7.034;2023-03-31T03:16:20;10.10;99.90
31597;DHT22;18201;50.978;7.034;2023-03-31T03:16:57;10.10;99.90
31597;DHT22;18201;50.978;7.034;2023-03-31T03:17:34;10.10;99.90
31597;DHT22;18201;50.978;7.034;2023-03-31T03:18:06;10.10;99.90
31597;DHT22;18201;50.978;7.034;2023-03-31T03:18:40;10.10;99.90
31597;DHT22;18201;50.978;7.034;2023-03-31T03:19:19;10.10;99.90
31597;DHT22;18201;50.978;7.034;2023-03-31T03:19:53;10.10;99.90
31597;DHT22;18201;50.978;7.034;2023-03-31T03:20:24;10.10;99.90
31597;DHT22;18201;50.978;7.034;2023-03-31T03:20:56;10.10;99.90
31597;DHT22;18201;50.978;7.034;2023-03-31T03:21:27;10.00;99.90
31597;DHT22;18201;50.978;7.034;2023-03-31T03:21:58;10.00;99.90
31597;DHT22;18201;50.978;7.034;2023-03-31T03:22:30;10.00;99.90
31597;DHT22;18201;50.978;7.034;2023-03-31T03:23:01;10.00;99.90
31597;DHT22;18201;50.978;7.034;2023-03-31T03:23:32;10.00;99.90
31597;DHT22;18201;50.978;7.034;2023-03-31T03:24:04;10.00;99.90
31597;DHT22;18201;50.978;7.034;2023-03-31T03:24:35;10.00;99.90
31597;DHT22;18201;50.978;7.034;2023-03-31T03:25:08;10.00;99.90
31597;DHT22;18201;50.978;7.034;2023-03-31T03:25:41;10.00;99.90
31597;DHT22;18201;50.978;7.034;2023-03-31T03:26:12;10.10;99.90
31597;DHT22;18201;50.978;7.034;2023-03-31T03:26:43;10.00;99.90
31597;DHT22;18201;50.978;7.034;2023-03-31T03:27:14;10.00;99.90
31597;DHT22;18201;50.978;7.034;2023-03-31T03:27:48;10.10;99.90
31597;DHT22;18201;50.978;7.034;2023-03-31T03:28:19;10.00;99.90
31597;DHT22;18201;50.978;7.034;2023-03-31T03:28:51;10.00;99.90
31597;DHT22;18201;50.978;7.034;2023-03-31T03:29:21;10.00;99.90
31597;DHT22;18201;50.978;7.034;2023-03-31T03:29:52;10.00;99.90
31597;DHT22;18201;50.978;7.034;2023-03-31T03:30:24;10.00;99.90
31597;DHT22;18201;50.978;7.034;2023-03-31T03:30:55;10.00;99.90
31597;DHT22;18201;50.978;7.034;2023-03-31T03:31:26;10.00;99.90
31597;DHT22;18201;50.978;7.034;2023-03-31T03:31:58;10.00;99.90
31597;DHT22;18201;50.978;7.034;2023-03-31T03:32:29;10.00;99.90
31597;DHT22;18201;50.978;7.034;2023-03-31T03:33:00;10.00;99.90
31597;DHT22;18201;50.978;7.034;2023-03-31T03:33:32;10.00;99.90
31597;DHT22;18201;50.978;7.034;2023-03-31T03:34:03;10.00;99.90
31597;DHT22;18201;50.978;7.034;2023-03-31T03:34:34;10.00;99.90
31597;DHT22;18201;50.978;7.034;2023-03-31T03:35:07;10.00;99.90
31597;DHT22;18201;50.978;7.034;2023-03-31T03:35:38;10.00;99.90
31597;DHT22;18201;50.978;7.034;2023-03-31T03:36:09;10.00;99.90
31597;DHT22;18201;50.978;7.034;2023-03-31T03:36:41;10.00;99.90
31597;DHT22;18201;50.978;7.034;2023-03-31T03:37:12;10.00;99.90
31597;DHT22;18201;50.978;7.034;2023-03-31T03:37:43;10.00;99.90
31597;DHT22;18201;50.978;7.034;2023-03-31T03:38:15;10.00;99.90
31597;DHT22;18201;50.978;7.034;2023-03-31T03:38:46;10.00;99.90
31597;DHT22;18201;50.978;7.034;2023-03-31T03:39:16;10.00;99.90
31597;DHT22;18201;50.978;7.034;2023-03-31T03:39:48;10.00;99.90
31597;DHT22;18201;50.978;7.034;2023-03-31T03:40:19;10.00;99.90
31597;DHT22;18201;50.978;7.034;2023-03-31T03:40:52;10.00;99.90
31597;DHT22;18201;50.978;7.034;2023-03-31T03:41:24;10.00;99.90
31597;DHT22;18201;50.978;7.034;2023-03-31T03:41:55;10.00;99.90
31597;DHT22;18201;50.978;7.034;2023-03-31T03:42:26;10.00;99.90
31597;DHT22;18201;50.978;7.034;2023-03-31T03:42:59;10.10;99.90
31597;DHT22;18201;50.978;7.034;2023-03-31T03:43:30;10.00;99.90
31597;DHT22;18201;50.978;7.034;2023-03-31T03:44:01;10.00;99.90
31597;DHT22;18201;50.978;7.034;2023-03-31T03:44:33;10.00;99.90
31597;DHT22;18201;50.978;7.034;2023-03-31T03:45:05;10.00;99.90
31597;DHT22;18201;50.978;7.034;2023-03-31T03:45:36;10.00;99.90
31597;DHT22;18201;50.978;7.034;2023-03-31T03:46:07;10.00;99.90
31597;DHT22;18201;50.978;7.034;2023-03-31T03:46:38;10.00;99.90
31597;DHT22;18201;50.978;7.034;2023-03-31T03:47:10;10.00;99.90
31597;DHT22;18201;50.978;7.034;2023-03-31T03:47:41;10.10;99.90
31597;DHT22;18201;50.978;7.034;2023-03-31T03:48:12;10.00;99.90
31597;DHT22;18201;50.978;7.034;2023-03-31T03:48:43;10.00;99.90
31597;DHT22;18201;50.978;7.034;2023-03-31T03:49:16;10.00;99.90
31597;DHT22;18201;50.978;7.034;2023-03-31T03:49:47;10.10;99.90
31597;DHT22;18201;50.978;7.034;2023-03-31T03:50:18;10.00;99.90
31597;DHT22;18201;50.978;7.034;2023-03-31T03:50:50;10.00;99.90
31597;DHT22;18201;50.978;7.034;2023-03-31T03:51:22;10.00;99.90
31597;DHT22;18201;50.978;7.034;2023-03-31T03:51:53;10.00;99.90
31597;DHT22;18201;50.978;7.034;2023-03-31T03:52:25;10.00;99.90
31597;DHT22;18201;50.978;7.034;2023-03-31T03:52:56;10.00;99.90
31597;DHT22;18201;50.978;7.034;2023-03-31T03:53:28;10.00;99.90
31597;DHT22;18201;50.978;7.034;2023-03-31T03:53:59;10.00;99.90
31597;DHT22;18201;50.978;7.034;2023-03-31T03:54:31;10.00;99.90